• Join FlightAware (Why Join?)
  • Login
  • US Flag 
11:26AM EDT


 

Airport Tracker/Info


-or-


 

Live Flight TrackerFlight Track Log ✈ N521LL ✈ 28-Apr-2013 ✈ KLBB - KDAL

Flight Track Log - Related Links

Times and Time Zones

All times are in EDT time to prevent confusion due to time zone crossing. See the N521LL flight status page for this flight to view local times or setup timezone preferences in your user account.

Time Position Orientation Groundspeed Altitude Reporting Facility
EDT Latitude Longitude Course Direction KTS MPH feet Rate Location/Type
02:31PM 33.6444 -101.8322 90° East 166 191 3,900  Level Fort Worth Center
02:32PM 33.6075 -101.8178 162° South 210 242 5,800 2,880 Climbing Fort Worth Center
02:33PM 33.6083 -101.7306 89° East 268 308 8,900 3,120 Climbing Fort Worth Center
02:34PM 33.6500 -101.6103 67° East 283 326 13,400 3,000 Climbing Fort Worth Center
02:35PM 33.6778 -101.5294 68° East 283 326 16,200 2,700 Climbing Fort Worth Center
02:36PM 33.7083 -101.4233 71° East 297 342 18,900 2,340 Climbing Fort Worth Center
02:37PM 33.7334 -101.1278 90° East  Level FlightAware Approximate
02:37PM 33.7364 -101.3297 70° East 309 356 20,900  Level Fort Worth Center
02:38PM 33.7444 -101.2003 86° East 338 389 21,900 1,980 Climbing Fort Worth Center
02:39PM 33.7478 -101.0956 88° East 351 404 24,900 2,520 Climbing Fort Worth Center
02:40PM 33.7511 -100.9783 88° East 328 377 27,000 1,020 Climbing Fort Worth Center
02:41PM 33.7583 -100.8636 86° East 348 400 27,000  Level Fort Worth Center
02:42PM 33.7625 -100.7139 88° East 394 453 27,000  Level Fort Worth Center
02:43PM 33.7697 -100.5917 86° East 405 466 27,000  Level Fort Worth Center
02:44PM 33.7756 -100.4469 87° East 417 480 27,000  Level Fort Worth Center
02:45PM 33.7869 -100.3100 84° East 422 486 27,000  Level Fort Worth Center
02:46PM 33.8214 -100.1761 73° East 422 486 27,000  Level Fort Worth Center
02:47PM 33.8536 -100.0397 74° East 417 480 27,000  Level Fort Worth Center
02:48PM 33.8897 -99.9056 72° East 417 480 27,000  Level Fort Worth Center
02:49PM 33.9047 -99.7708 82° East 412 474 27,000  Level Fort Worth Center
02:50PM 33.8825 -99.6278 101° East 412 474 27,000  Level Fort Worth Center
02:51PM 33.8536 -99.4844 104° East 417 480 27,000  Level Fort Worth Center
02:52PM 33.8267 -99.3311 102° East 424 488 27,000  Level Fort Worth Center
02:53PM 33.7975 -99.1931 104° East 431 496 27,000  Level Fort Worth Center
02:54PM 33.7722 -99.0528 102° East 436 502 27,000 -420 Level Fort Worth Center
02:55PM 33.7447 -98.9322 105° East 424 488 26,200 -1,020 Descending Fort Worth Center
02:56PM 33.7233 -98.7969 101° East 414 476 25,000 -600 Descending Fort Worth Center
02:57PM 33.6975 -98.6667 103° East 401 461 25,000 -240 Level Fort Worth Center
02:58PM 33.6694 -98.5342 104° East 401 461 24,600 -1,260 Descending Fort Worth Center
02:59PM 33.6433 -98.4064 104° East 395 455 22,500 -2,340 Descending Fort Worth Center
03:00PM 33.6172 -98.2714 103° East 388 447 20,000 -2,520 Descending Fort Worth Center
03:01PM 33.5931 -98.1567 104° East 370 426 17,500 -2,340 Descending Fort Worth Center
03:02PM 33.5686 -98.0367 104° East 364 419 15,400 -1,680 Descending Fort Worth Center
03:03PM 33.5442 -97.9169 104° East 359 413 14,200 -1,200 Descending Fort Worth Center
03:04PM 33.5217 -97.8147 105° East 354 407 13,000 -1,260 Descending Fort Worth Center
03:05PM 33.4969 -97.6925 104° East 348 400 11,700 -1,080 Descending Fort Worth Center
03:06PM 33.4719 -97.5828 105° East 338 389 10,900 -1,020 Descending Fort Worth Center
03:07PM 33.4511 -97.4781 103° East 333 383 9,700 -1,740 Descending Fort Worth Center
03:08PM 33.3886 -97.4108 138° Southeast 306 352 7,500 -2,100 Descending Fort Worth Center
03:09PM 33.3594 -97.3264 112° Southeast 281 323 5,500 -1,260 Descending Fort Worth Center
03:10PM 33.3592 -97.2394 90° East 261 300 5,000 -300 Descending Fort Worth Center
03:11PM 33.3550 -97.1497 93° East 261 300 5,000 -240 Level Fort Worth Center
03:12PM 33.3486 -97.0728 96° East 270 311 4,600 -540 Descending Fort Worth Center
03:13PM 33.3439 -96.9708 93° East 270 311 4,000 -300 Descending Fort Worth Center
03:14PM 33.3353 -96.8889 97° East 275 316 4,000  Level Fort Worth Center
03:15PM 33.2683 -96.8544 157° South 233 268 4,000  Level Fort Worth Center
03:16PM 33.2036 -96.8450 173° South 233 268 4,000  Level Fort Worth Center
03:17PM 33.1264 -96.8553 186° South 253 291 4,000  Level Fort Worth Center
03:18PM 33.0639 -96.8656 188° South 258 297 4,000 -960 Level Fort Worth Center
03:19PM 33.0000 -96.8833 193° South 258 297 2,400 -1,260 Descending Dallas / Fort Worth TRACON
03:20PM 32.9333 -96.8833 180° South 227 261 1,900 -540 Descending Dallas / Fort Worth TRACON
03:22PM 32.8471 -96.8518 140° Southeast  Level Estimated
03:29PM 32.8471 -96.8518 140° Southeast  Level Estimated
03:30PM 32.8471 -96.8518 140° Southeast  Level Estimated